HEBA/HBE METAR and TAF weather

Enter ICAO airport designator
Station Type Date Time Source
HEBA METAR 2020/04/07 17:00 UTC NOAA

HEBA 071700Z 34005KT CAVOK 16/10 Q1017 NOSIG


Station Type Date Time Source
HEBA Decoded METAR 2020/04/07 17:00 UTC NOAA

Alexandria Borg El Arab, Egypt (HEBA) 31-31N 030-10E
Apr 07, 2020 - 01:00 PM EDT / 2020.04.07 1700 UTC
Wind: from the NNW (340 degrees) at 6 MPH (5 KT):0
Visibility: greater than 7 mile(s):0
Temperature: 60 F (16 C)
Dew Point: 50 F (10 C)
Relative Humidity: 67%
Pressure (altimeter): 30.03 in. Hg (1017 hPa)
ob: HEBA 071700Z 34005KT CAVOK 16/10 Q1017 NOSIG
cycle: 17

Station Type Date Time Source
HEBA TAF 2020/04/07 18:06 UTC NOAA

TAF HEBA 071700Z 0718/0824 32011KT 9999 SCT020

Example: see airport list